IAE141 UIII-UIKB
Flight info
| Callsign | IAE141 |
|---|---|
| Flight time | 2h 7m |
| Altitude | 19000 |
| Route | K0445F190 KA W225 GARAK W269 UTANA |
| Aircraft | AN24/M-I/L |
Departure
| Time | 2026-04-28 06:36 |
|---|---|
| Airport | Irkutsk International Airport (UIII) |
Arrival
| Time | 2026-04-28 08:44 |
|---|---|
| Airport | Bodaybo Airport (UIKB) |
| Time | Latitude | Longitude | Altitude | Speed | Heading |
|---|---|---|---|---|---|
| 2026-04-28 05:38 | 52.26993 | 104.35722 | 1606 ft | 0 kts | 230° |
| 2026-04-28 06:18 | 52.26984 | 104.35704 | 1606 ft | 3 kts | 229° |
| 2026-04-28 06:18 | 52.26949 | 104.35672 | 1608 ft | 5 kts | 163° |
| 2026-04-28 06:19 | 52.26915 | 104.35713 | 1612 ft | 8 kts | 139° |
| 2026-04-28 06:19 | 52.26849 | 104.35803 | 1616 ft | 12 kts | 140° |
| 2026-04-28 06:19 | 52.26794 | 104.35878 | 1619 ft | 7 kts | 141° |
| 2026-04-28 06:19 | 52.26719 | 104.35983 | 1622 ft | 18 kts | 126° |
| 2026-04-28 06:20 | 52.26764 | 104.36118 | 1622 ft | 19 kts | 50° |
| 2026-04-28 06:20 | 52.26853 | 104.36291 | 1620 ft | 19 kts | 49° |
| 2026-04-28 06:20 | 52.26941 | 104.36463 | 1615 ft | 20 kts | 51° |
| 2026-04-28 06:20 | 52.27018 | 104.36638 | 1610 ft | 15 kts | 91° |
| 2026-04-28 06:21 | 52.26988 | 104.36790 | 1615 ft | 15 kts | 110° |
| 2026-04-28 06:21 | 52.26945 | 104.36983 | 1619 ft | 20 kts | 111° |
| 2026-04-28 06:21 | 52.26965 | 104.37144 | 1615 ft | 17 kts | 52° |
| 2026-04-28 06:21 | 52.26989 | 104.37326 | 1610 ft | 16 kts | 113° |
| 2026-04-28 06:22 | 52.26946 | 104.37493 | 1614 ft | 21 kts | 113° |
| 2026-04-28 06:22 | 52.26891 | 104.37700 | 1618 ft | 17 kts | 112° |
| 2026-04-28 06:22 | 52.26825 | 104.37949 | 1622 ft | 25 kts | 114° |
| 2026-04-28 06:22 | 52.26756 | 104.38208 | 1628 ft | 25 kts | 113° |
| 2026-04-28 06:23 | 52.26691 | 104.38452 | 1633 ft | 26 kts | 114° |
| 2026-04-28 06:23 | 52.26616 | 104.38736 | 1642 ft | 27 kts | 112° |
| 2026-04-28 06:23 | 52.26534 | 104.39046 | 1652 ft | 27 kts | 111° |
| 2026-04-28 06:23 | 52.26459 | 104.39324 | 1656 ft | 25 kts | 113° |
| 2026-04-28 06:24 | 52.26392 | 104.39578 | 1658 ft | 24 kts | 112° |
| 2026-04-28 06:24 | 52.26310 | 104.39884 | 1657 ft | 29 kts | 113° |
| 2026-04-28 06:24 | 52.26228 | 104.40189 | 1654 ft | 32 kts | 112° |
| 2026-04-28 06:24 | 52.26138 | 104.40528 | 1656 ft | 31 kts | 112° |
| 2026-04-28 06:25 | 52.26055 | 104.40839 | 1664 ft | 27 kts | 113° |
| 2026-04-28 06:25 | 52.25995 | 104.41084 | 1669 ft | 19 kts | 91° |
| 2026-04-28 06:25 | 52.26067 | 104.41210 | 1672 ft | 14 kts | 23° |
| 2026-04-28 06:25 | 52.26104 | 104.41236 | 1672 ft | 0 kts | 23° |
| 2026-04-28 06:27 | 52.26104 | 104.41237 | 1672 ft | 0 kts | 23° |
| 2026-04-28 06:27 | 52.26121 | 104.41248 | 1672 ft | 0 kts | 22° |
| 2026-04-28 06:27 | 52.26142 | 104.41260 | 1672 ft | 5 kts | 17° |
| 2026-04-28 06:27 | 52.26163 | 104.41270 | 1672 ft | 0 kts | 13° |
| 2026-04-28 06:33 | 52.26184 | 104.41279 | 1671 ft | 9 kts | 12° |
| 2026-04-28 06:34 | 52.26247 | 104.41222 | 1669 ft | 13 kts | 293° |
| 2026-04-28 06:34 | 52.26277 | 104.41109 | 1666 ft | 0 kts | 292° |
| 2026-04-28 06:35 | 52.26307 | 104.40993 | 1664 ft | 44 kts | 292° |
| 2026-04-28 06:35 | 52.26530 | 104.40159 | 1648 ft | 110 kts | 292° |
| 2026-04-28 06:36 | 52.26909 | 104.38825 | 1663 ft | 144 kts | 293° |
| 2026-04-28 06:36 | 52.27361 | 104.37234 | 1908 ft | 162 kts | 291° |
| 2026-04-28 06:36 | 52.27842 | 104.35559 | 2249 ft | 171 kts | 296° |
| 2026-04-28 06:36 | 52.28643 | 104.34058 | 2623 ft | 179 kts | 322° |
| 2026-04-28 06:37 | 52.29811 | 104.33257 | 2940 ft | 188 kts | 350° |
| 2026-04-28 06:37 | 52.31497 | 104.33607 | 3525 ft | 182 kts | 24° |
| 2026-04-28 06:37 | 52.32215 | 104.34301 | 3755 ft | 184 kts | 35° |
| 2026-04-28 06:37 | 52.33305 | 104.35471 | 4036 ft | 190 kts | 32° |
| 2026-04-28 06:38 | 52.34407 | 104.36614 | 4373 ft | 191 kts | 33° |
| 2026-04-28 06:38 | 52.35517 | 104.37832 | 4694 ft | 191 kts | 35° |
| 2026-04-28 06:38 | 52.36578 | 104.39100 | 4968 ft | 190 kts | 37° |
| 2026-04-28 06:38 | 52.37620 | 104.40413 | 5240 ft | 190 kts | 38° |
| 2026-04-28 06:39 | 52.38651 | 104.41792 | 5417 ft | 195 kts | 40° |
| 2026-04-28 06:39 | 52.39699 | 104.43220 | 5664 ft | 195 kts | 38° |
| 2026-04-28 06:39 | 52.40753 | 104.44588 | 5912 ft | 195 kts | 38° |
| 2026-04-28 06:39 | 52.41814 | 104.46027 | 6123 ft | 197 kts | 39° |
| 2026-04-28 06:40 | 52.42860 | 104.47447 | 6358 ft | 198 kts | 38° |
| 2026-04-28 06:40 | 52.43932 | 104.48879 | 6595 ft | 198 kts | 38° |
| 2026-04-28 06:40 | 52.44982 | 104.50304 | 6800 ft | 199 kts | 39° |
| 2026-04-28 06:40 | 52.46032 | 104.51762 | 7070 ft | 197 kts | 40° |
| 2026-04-28 06:41 | 52.47044 | 104.53256 | 7307 ft | 197 kts | 40° |
| 2026-04-28 06:41 | 52.48101 | 104.54755 | 7475 ft | 201 kts | 39° |
| 2026-04-28 06:41 | 52.49155 | 104.56190 | 7754 ft | 197 kts | 38° |
| 2026-04-28 06:41 | 52.50221 | 104.57616 | 8001 ft | 196 kts | 38° |
| 2026-04-28 06:42 | 52.51275 | 104.59066 | 8174 ft | 199 kts | 39° |
| 2026-04-28 06:42 | 52.52652 | 104.61002 | 8508 ft | 197 kts | 39° |
| 2026-04-28 06:42 | 52.53361 | 104.61989 | 8636 ft | 198 kts | 38° |
| 2026-04-28 06:42 | 52.54412 | 104.63451 | 8847 ft | 198 kts | 39° |
| 2026-04-28 06:43 | 52.55428 | 104.64936 | 9087 ft | 196 kts | 40° |
| 2026-04-28 06:43 | 52.56436 | 104.66432 | 9317 ft | 195 kts | 41° |
| 2026-04-28 06:43 | 52.57430 | 104.67901 | 9539 ft | 194 kts | 40° |
| 2026-04-28 06:43 | 52.58441 | 104.69395 | 9738 ft | 195 kts | 40° |
| 2026-04-28 06:44 | 52.59446 | 104.70881 | 9933 ft | 195 kts | 40° |
| 2026-04-28 06:44 | 52.60460 | 104.72380 | 10127 ft | 195 kts | 40° |
| 2026-04-28 06:44 | 52.61457 | 104.73858 | 10301 ft | 197 kts | 40° |
| 2026-04-28 06:44 | 52.62471 | 104.75362 | 10477 ft | 198 kts | 40° |
| 2026-04-28 06:45 | 52.63505 | 104.76895 | 10659 ft | 198 kts | 40° |
| 2026-04-28 06:45 | 52.64529 | 104.78413 | 10837 ft | 199 kts | 40° |
| 2026-04-28 06:45 | 52.65557 | 104.79930 | 11018 ft | 199 kts | 39° |
| 2026-04-28 06:45 | 52.66597 | 104.81426 | 11199 ft | 199 kts | 39° |
| 2026-04-28 06:46 | 52.67629 | 104.82905 | 11373 ft | 199 kts | 39° |
| 2026-04-28 06:46 | 52.68673 | 104.84383 | 11549 ft | 199 kts | 37° |
| 2026-04-28 06:46 | 52.69733 | 104.85853 | 11724 ft | 199 kts | 37° |
| 2026-04-28 06:46 | 52.70789 | 104.87315 | 11894 ft | 199 kts | 37° |
| 2026-04-28 06:47 | 52.71840 | 104.88777 | 12062 ft | 199 kts | 38° |
| 2026-04-28 06:47 | 52.72901 | 104.90256 | 12232 ft | 198 kts | 38° |
| 2026-04-28 06:47 | 52.73943 | 104.91707 | 12397 ft | 198 kts | 37° |
| 2026-04-28 06:47 | 52.74999 | 104.93176 | 12558 ft | 198 kts | 37° |
| 2026-04-28 06:48 | 52.76046 | 104.94634 | 12715 ft | 198 kts | 37° |
| 2026-04-28 06:48 | 52.77103 | 104.96105 | 12863 ft | 199 kts | 38° |
| 2026-04-28 06:48 | 52.78163 | 104.97584 | 13007 ft | 200 kts | 38° |
| 2026-04-28 06:48 | 52.79227 | 104.99073 | 13151 ft | 200 kts | 37° |
| 2026-04-28 06:49 | 52.80283 | 105.00549 | 13298 ft | 201 kts | 37° |
| 2026-04-28 06:49 | 52.81352 | 105.02042 | 13447 ft | 201 kts | 37° |
| 2026-04-28 06:49 | 52.82408 | 105.03517 | 13593 ft | 201 kts | 37° |
| 2026-04-28 06:49 | 52.83481 | 105.05020 | 13729 ft | 202 kts | 37° |
| 2026-04-28 06:50 | 52.84549 | 105.06514 | 13853 ft | 203 kts | 37° |
| 2026-04-28 06:50 | 52.85621 | 105.08015 | 13979 ft | 204 kts | 37° |
| 2026-04-28 06:50 | 52.86712 | 105.09547 | 14101 ft | 204 kts | 37° |
| 2026-04-28 06:50 | 52.87794 | 105.11066 | 14227 ft | 205 kts | 37° |
| 2026-04-28 06:51 | 52.88867 | 105.12573 | 14362 ft | 204 kts | 37° |
| 2026-04-28 06:51 | 52.89953 | 105.14100 | 14490 ft | 204 kts | 37° |
| 2026-04-28 06:51 | 52.91034 | 105.15621 | 14622 ft | 204 kts | 37° |
| 2026-04-28 06:51 | 52.92117 | 105.17145 | 14750 ft | 204 kts | 37° |
| 2026-04-28 06:52 | 52.93194 | 105.18662 | 14872 ft | 204 kts | 37° |
| 2026-04-28 06:52 | 52.94279 | 105.20191 | 14993 ft | 205 kts | 37° |
| 2026-04-28 06:52 | 52.95358 | 105.21711 | 15105 ft | 205 kts | 37° |
| 2026-04-28 06:52 | 52.96444 | 105.23247 | 15215 ft | 205 kts | 37° |
| 2026-04-28 06:53 | 52.97532 | 105.24786 | 15333 ft | 205 kts | 37° |
| 2026-04-28 06:53 | 52.98611 | 105.26308 | 15449 ft | 206 kts | 37° |
| 2026-04-28 06:53 | 52.99709 | 105.27863 | 15556 ft | 206 kts | 37° |
| 2026-04-28 06:53 | 53.00791 | 105.29395 | 15660 ft | 206 kts | 37° |
| 2026-04-28 06:54 | 53.01879 | 105.30934 | 15772 ft | 206 kts | 37° |
| 2026-04-28 06:54 | 53.02969 | 105.32480 | 15879 ft | 206 kts | 37° |
| 2026-04-28 06:54 | 53.04058 | 105.34026 | 15990 ft | 206 kts | 37° |
| 2026-04-28 06:54 | 53.05142 | 105.35566 | 16097 ft | 206 kts | 37° |
| 2026-04-28 06:55 | 53.06226 | 105.37107 | 16198 ft | 206 kts | 37° |
| 2026-04-28 06:55 | 53.07305 | 105.38640 | 16304 ft | 206 kts | 37° |
| 2026-04-28 06:55 | 53.08410 | 105.40210 | 16392 ft | 207 kts | 37° |
| 2026-04-28 06:55 | 53.09504 | 105.41765 | 16477 ft | 208 kts | 36° |
| 2026-04-28 06:56 | 53.10595 | 105.43316 | 16564 ft | 208 kts | 37° |
| 2026-04-28 06:56 | 53.11695 | 105.44885 | 16655 ft | 209 kts | 36° |
| 2026-04-28 06:56 | 53.12797 | 105.46458 | 16749 ft | 209 kts | 36° |
| 2026-04-28 06:56 | 53.13897 | 105.48026 | 16838 ft | 210 kts | 37° |
| 2026-04-28 06:57 | 53.15003 | 105.49603 | 16931 ft | 210 kts | 37° |
| 2026-04-28 06:57 | 53.16125 | 105.51204 | 16989 ft | 212 kts | 37° |
| 2026-04-28 06:57 | 53.17244 | 105.52803 | 17012 ft | 214 kts | 37° |
| 2026-04-28 06:57 | 53.18379 | 105.54427 | 17020 ft | 217 kts | 37° |
| 2026-04-28 06:58 | 53.19528 | 105.56068 | 17012 ft | 221 kts | 37° |
| 2026-04-28 06:58 | 53.20708 | 105.57761 | 17010 ft | 224 kts | 37° |
| 2026-04-28 06:58 | 53.21876 | 105.59434 | 17001 ft | 226 kts | 37° |
| 2026-04-28 06:58 | 53.23076 | 105.61153 | 17004 ft | 228 kts | 37° |
| 2026-04-28 06:59 | 53.24295 | 105.62904 | 16999 ft | 231 kts | 37° |
| 2026-04-28 06:59 | 53.25502 | 105.64637 | 16993 ft | 232 kts | 37° |
| 2026-04-28 06:59 | 53.26731 | 105.66401 | 17013 ft | 233 kts | 38° |
| 2026-04-28 06:59 | 53.27959 | 105.68170 | 16989 ft | 235 kts | 38° |
| 2026-04-28 07:00 | 53.29195 | 105.69950 | 17001 ft | 236 kts | 38° |
| 2026-04-28 07:00 | 53.30434 | 105.71735 | 16994 ft | 237 kts | 38° |
| 2026-04-28 07:00 | 53.31690 | 105.73544 | 16999 ft | 237 kts | 37° |
| 2026-04-28 07:00 | 53.32924 | 105.75330 | 17002 ft | 238 kts | 38° |
| 2026-04-28 07:01 | 53.34182 | 105.77148 | 17003 ft | 238 kts | 38° |
| 2026-04-28 07:01 | 53.35428 | 105.78951 | 17010 ft | 239 kts | 38° |
| 2026-04-28 07:01 | 53.36682 | 105.80764 | 16978 ft | 241 kts | 38° |
| 2026-04-28 07:01 | 53.37944 | 105.82591 | 16994 ft | 240 kts | 38° |
| 2026-04-28 07:02 | 53.39203 | 105.84419 | 17004 ft | 240 kts | 38° |
| 2026-04-28 07:02 | 53.40471 | 105.86261 | 16988 ft | 241 kts | 38° |
| 2026-04-28 07:02 | 53.41722 | 105.88078 | 17011 ft | 240 kts | 38° |
| 2026-04-28 07:02 | 53.42976 | 105.89901 | 17002 ft | 240 kts | 38° |
| 2026-04-28 07:03 | 53.44245 | 105.91745 | 17001 ft | 240 kts | 38° |
| 2026-04-28 07:03 | 53.45515 | 105.93594 | 17003 ft | 241 kts | 38° |
| 2026-04-28 07:03 | 53.46765 | 105.95417 | 16990 ft | 242 kts | 38° |
| 2026-04-28 07:03 | 53.48035 | 105.97269 | 17018 ft | 241 kts | 38° |
| 2026-04-28 07:04 | 53.49301 | 105.99116 | 17014 ft | 241 kts | 38° |
| 2026-04-28 07:04 | 53.50563 | 106.00958 | 16983 ft | 242 kts | 38° |
| 2026-04-28 07:04 | 53.51834 | 106.02815 | 17003 ft | 243 kts | 38° |
| 2026-04-28 07:04 | 53.53102 | 106.04675 | 16979 ft | 243 kts | 38° |
| 2026-04-28 07:05 | 53.54370 | 106.06532 | 16996 ft | 242 kts | 38° |
| 2026-04-28 07:05 | 53.55646 | 106.08407 | 17012 ft | 242 kts | 38° |
| 2026-04-28 07:05 | 53.56916 | 106.10268 | 16984 ft | 244 kts | 38° |
| 2026-04-28 07:05 | 53.58187 | 106.12138 | 16962 ft | 244 kts | 38° |
| 2026-04-28 07:06 | 53.59452 | 106.13998 | 16983 ft | 242 kts | 38° |
| 2026-04-28 07:06 | 53.60712 | 106.15852 | 16997 ft | 242 kts | 38° |
| 2026-04-28 07:06 | 53.61984 | 106.17726 | 16979 ft | 242 kts | 38° |
| 2026-04-28 07:06 | 53.63239 | 106.19580 | 17006 ft | 240 kts | 38° |
| 2026-04-28 07:07 | 53.64489 | 106.21423 | 17002 ft | 241 kts | 38° |
| 2026-04-28 07:07 | 53.65755 | 106.23294 | 16996 ft | 241 kts | 38° |
| 2026-04-28 07:07 | 53.67000 | 106.25134 | 17011 ft | 241 kts | 38° |
| 2026-04-28 07:07 | 53.68265 | 106.27004 | 16998 ft | 242 kts | 38° |
| 2026-04-28 07:08 | 53.69530 | 106.28879 | 16994 ft | 242 kts | 38° |
| 2026-04-28 07:08 | 53.70794 | 106.30751 | 17005 ft | 241 kts | 37° |
| 2026-04-28 07:08 | 53.72047 | 106.32610 | 16986 ft | 242 kts | 38° |
| 2026-04-28 07:08 | 53.73312 | 106.34486 | 16998 ft | 241 kts | 37° |
| 2026-04-28 07:09 | 53.74565 | 106.36348 | 16994 ft | 241 kts | 38° |
| 2026-04-28 07:09 | 53.75827 | 106.38225 | 17004 ft | 241 kts | 37° |
| 2026-04-28 07:09 | 53.77072 | 106.40076 | 17005 ft | 241 kts | 37° |
| 2026-04-28 07:09 | 53.78325 | 106.41943 | 16995 ft | 241 kts | 38° |
| 2026-04-28 07:10 | 53.79579 | 106.43813 | 17010 ft | 241 kts | 38° |
| 2026-04-28 07:10 | 53.80832 | 106.45680 | 16987 ft | 242 kts | 38° |
| 2026-04-28 07:10 | 53.82089 | 106.47559 | 17000 ft | 241 kts | 38° |
| 2026-04-28 07:10 | 53.83347 | 106.49439 | 17007 ft | 241 kts | 38° |
| 2026-04-28 07:11 | 53.84604 | 106.51318 | 16984 ft | 242 kts | 38° |
| 2026-04-28 07:11 | 53.85853 | 106.53190 | 16999 ft | 241 kts | 38° |
| 2026-04-28 07:11 | 53.87122 | 106.55089 | 16998 ft | 241 kts | 38° |
| 2026-04-28 07:11 | 53.88366 | 106.56955 | 16976 ft | 242 kts | 38° |
| 2026-04-28 07:12 | 53.89628 | 106.58847 | 16997 ft | 241 kts | 38° |
| 2026-04-28 07:12 | 53.90888 | 106.60740 | 16988 ft | 241 kts | 38° |
| 2026-04-28 07:12 | 53.92133 | 106.62611 | 16988 ft | 241 kts | 38° |
| 2026-04-28 07:12 | 53.93387 | 106.64497 | 16991 ft | 241 kts | 38° |
| 2026-04-28 07:13 | 53.94634 | 106.66376 | 16975 ft | 241 kts | 38° |
| 2026-04-28 07:13 | 53.95893 | 106.68274 | 16999 ft | 240 kts | 38° |
| 2026-04-28 07:13 | 53.97131 | 106.70139 | 16992 ft | 240 kts | 38° |
| 2026-04-28 07:13 | 53.98385 | 106.72034 | 16984 ft | 240 kts | 38° |
| 2026-04-28 07:14 | 53.99613 | 106.73891 | 17001 ft | 239 kts | 38° |
| 2026-04-28 07:14 | 54.00854 | 106.75767 | 16981 ft | 240 kts | 38° |
| 2026-04-28 07:14 | 54.02104 | 106.77658 | 16994 ft | 240 kts | 38° |
| 2026-04-28 07:14 | 54.03355 | 106.79554 | 16995 ft | 240 kts | 38° |
| 2026-04-28 07:15 | 54.04597 | 106.81436 | 16985 ft | 240 kts | 38° |
| 2026-04-28 07:15 | 54.05829 | 106.83305 | 17000 ft | 239 kts | 38° |
| 2026-04-28 07:15 | 54.07069 | 106.85188 | 16981 ft | 240 kts | 38° |
| 2026-04-28 07:15 | 54.08318 | 106.87086 | 16989 ft | 239 kts | 38° |
| 2026-04-28 07:16 | 54.09554 | 106.88967 | 16996 ft | 239 kts | 38° |
| 2026-04-28 07:16 | 54.10784 | 106.90838 | 16981 ft | 240 kts | 38° |
| 2026-04-28 07:16 | 54.12032 | 106.92740 | 16992 ft | 239 kts | 38° |
| 2026-04-28 07:16 | 54.13260 | 106.94614 | 16993 ft | 239 kts | 38° |
| 2026-04-28 07:17 | 54.14505 | 106.96513 | 16988 ft | 240 kts | 38° |
| 2026-04-28 07:17 | 54.15746 | 106.98406 | 16977 ft | 240 kts | 38° |
| 2026-04-28 07:17 | 54.16976 | 107.00291 | 16995 ft | 239 kts | 38° |
| 2026-04-28 07:17 | 54.18209 | 107.02177 | 16990 ft | 240 kts | 38° |
| 2026-04-28 07:18 | 54.19450 | 107.04076 | 16998 ft | 240 kts | 38° |
| 2026-04-28 07:18 | 54.20683 | 107.05963 | 16996 ft | 240 kts | 38° |
| 2026-04-28 07:18 | 54.21938 | 107.07890 | 16988 ft | 241 kts | 38° |
| 2026-04-28 07:18 | 54.23166 | 107.09776 | 17005 ft | 240 kts | 38° |
| 2026-04-28 07:19 | 54.24414 | 107.11692 | 16987 ft | 241 kts | 38° |
| 2026-04-28 07:19 | 54.25647 | 107.13587 | 16998 ft | 240 kts | 38° |
| 2026-04-28 07:19 | 54.26893 | 107.15507 | 17001 ft | 240 kts | 38° |
| 2026-04-28 07:19 | 54.28125 | 107.17403 | 16983 ft | 241 kts | 38° |
| 2026-04-28 07:20 | 54.29371 | 107.19324 | 16989 ft | 240 kts | 38° |
| 2026-04-28 07:20 | 54.30603 | 107.21228 | 17023 ft | 239 kts | 38° |
| 2026-04-28 07:20 | 54.31849 | 107.23153 | 17007 ft | 240 kts | 38° |
| 2026-04-28 07:20 | 54.33084 | 107.25062 | 16993 ft | 241 kts | 38° |
| 2026-04-28 07:21 | 54.34313 | 107.26964 | 17003 ft | 240 kts | 38° |
| 2026-04-28 07:21 | 54.35561 | 107.28895 | 16988 ft | 241 kts | 38° |
| 2026-04-28 07:21 | 54.36788 | 107.30795 | 16976 ft | 241 kts | 38° |
| 2026-04-28 07:22 | 54.39262 | 107.34640 | 17009 ft | 240 kts | 38° |
| 2026-04-28 07:22 | 54.40501 | 107.36563 | 16997 ft | 241 kts | 38° |
| 2026-04-28 07:22 | 54.41726 | 107.38470 | 17006 ft | 240 kts | 37° |
| 2026-04-28 07:22 | 54.42970 | 107.40407 | 17009 ft | 241 kts | 37° |
| 2026-04-28 07:23 | 54.44213 | 107.42340 | 16996 ft | 242 kts | 37° |
| 2026-04-28 07:23 | 54.45462 | 107.44289 | 16997 ft | 242 kts | 38° |
| 2026-04-28 07:23 | 54.46687 | 107.46203 | 17017 ft | 241 kts | 37° |
| 2026-04-28 07:23 | 54.47927 | 107.48136 | 17003 ft | 242 kts | 37° |
| 2026-04-28 07:24 | 54.49177 | 107.50093 | 17007 ft | 241 kts | 37° |
| 2026-04-28 07:24 | 54.50409 | 107.52022 | 17030 ft | 241 kts | 37° |
| 2026-04-28 07:24 | 54.51641 | 107.53948 | 17007 ft | 243 kts | 37° |
| 2026-04-28 07:24 | 54.52884 | 107.55898 | 17002 ft | 243 kts | 38° |
| 2026-04-28 07:25 | 54.54132 | 107.57860 | 17001 ft | 243 kts | 37° |
| 2026-04-28 07:25 | 54.55390 | 107.59837 | 17005 ft | 243 kts | 38° |
| 2026-04-28 07:25 | 54.56626 | 107.61784 | 17019 ft | 243 kts | 37° |
| 2026-04-28 07:25 | 54.57879 | 107.63756 | 17007 ft | 243 kts | 37° |
| 2026-04-28 07:26 | 54.59121 | 107.65716 | 17007 ft | 243 kts | 38° |
| 2026-04-28 07:26 | 54.60365 | 107.67677 | 16989 ft | 244 kts | 38° |
| 2026-04-28 07:26 | 54.61625 | 107.69668 | 16994 ft | 244 kts | 38° |
| 2026-04-28 07:26 | 54.62864 | 107.71628 | 16976 ft | 244 kts | 38° |
| 2026-04-28 07:27 | 54.64122 | 107.73618 | 16994 ft | 243 kts | 38° |
| 2026-04-28 07:27 | 54.65350 | 107.75565 | 17001 ft | 243 kts | 38° |
| 2026-04-28 07:27 | 54.66611 | 107.77560 | 16969 ft | 244 kts | 38° |
| 2026-04-28 07:27 | 54.67859 | 107.79542 | 16981 ft | 244 kts | 38° |
| 2026-04-28 07:28 | 54.69087 | 107.81491 | 16980 ft | 244 kts | 38° |
| 2026-04-28 07:28 | 54.70340 | 107.83483 | 16991 ft | 243 kts | 38° |
| 2026-04-28 07:28 | 54.71575 | 107.85448 | 16987 ft | 243 kts | 38° |
| 2026-04-28 07:28 | 54.72821 | 107.87431 | 16960 ft | 244 kts | 38° |
| 2026-04-28 07:29 | 54.74066 | 107.89420 | 17007 ft | 242 kts | 38° |
| 2026-04-28 07:29 | 54.75287 | 107.91365 | 17008 ft | 242 kts | 38° |
| 2026-04-28 07:29 | 54.76538 | 107.93358 | 16926 ft | 246 kts | 38° |
| 2026-04-28 07:29 | 54.77789 | 107.95355 | 16996 ft | 243 kts | 38° |
| 2026-04-28 07:30 | 54.79014 | 107.97317 | 17057 ft | 241 kts | 38° |
| 2026-04-28 07:30 | 54.80267 | 107.99317 | 16958 ft | 246 kts | 38° |
| 2026-04-28 07:30 | 54.81512 | 108.01305 | 16947 ft | 246 kts | 38° |
| 2026-04-28 07:30 | 54.82767 | 108.03317 | 17029 ft | 242 kts | 38° |
| 2026-04-28 07:31 | 54.83998 | 108.05295 | 17028 ft | 243 kts | 38° |
| 2026-04-28 07:31 | 54.85247 | 108.07294 | 16930 ft | 248 kts | 38° |
| 2026-04-28 07:31 | 54.86515 | 108.09327 | 16994 ft | 245 kts | 38° |
| 2026-04-28 07:31 | 54.87749 | 108.11313 | 17039 ft | 244 kts | 38° |
| 2026-04-28 07:32 | 54.88999 | 108.13325 | 16938 ft | 248 kts | 38° |
| 2026-04-28 07:32 | 54.90255 | 108.15347 | 16956 ft | 246 kts | 38° |
| 2026-04-28 07:32 | 54.91494 | 108.17349 | 17048 ft | 242 kts | 38° |
| 2026-04-28 07:32 | 54.92728 | 108.19339 | 16991 ft | 245 kts | 38° |
| 2026-04-28 07:33 | 54.93987 | 108.21366 | 16939 ft | 248 kts | 38° |
| 2026-04-28 07:33 | 54.95246 | 108.23400 | 17034 ft | 244 kts | 38° |
| 2026-04-28 07:33 | 54.96477 | 108.25394 | 17033 ft | 245 kts | 38° |
| 2026-04-28 07:33 | 54.97739 | 108.27434 | 16957 ft | 248 kts | 38° |
| 2026-04-28 07:34 | 54.98994 | 108.29468 | 17008 ft | 246 kts | 38° |
| 2026-04-28 07:34 | 55.00222 | 108.31464 | 17053 ft | 244 kts | 38° |
| 2026-04-28 07:34 | 55.01482 | 108.33505 | 16952 ft | 249 kts | 38° |
| 2026-04-28 07:34 | 55.02738 | 108.35542 | 16963 ft | 248 kts | 38° |
| 2026-04-28 07:35 | 55.03991 | 108.37585 | 17059 ft | 244 kts | 38° |
| 2026-04-28 07:35 | 55.05222 | 108.39590 | 16999 ft | 247 kts | 38° |
| 2026-04-28 07:35 | 55.06483 | 108.41640 | 16943 ft | 249 kts | 38° |
| 2026-04-28 07:35 | 55.07734 | 108.43682 | 17030 ft | 244 kts | 38° |
| 2026-04-28 07:36 | 55.08971 | 108.45703 | 17031 ft | 245 kts | 38° |
| 2026-04-28 07:36 | 55.10227 | 108.47752 | 16951 ft | 249 kts | 38° |
| 2026-04-28 07:36 | 55.11488 | 108.49814 | 17020 ft | 245 kts | 38° |
| 2026-04-28 07:36 | 55.12707 | 108.51816 | 17068 ft | 243 kts | 38° |
| 2026-04-28 07:37 | 55.13948 | 108.53845 | 16964 ft | 248 kts | 38° |
| 2026-04-28 07:37 | 55.15207 | 108.55905 | 16985 ft | 246 kts | 38° |
| 2026-04-28 07:37 | 55.16435 | 108.57925 | 17070 ft | 243 kts | 38° |
| 2026-04-28 07:37 | 55.17665 | 108.59948 | 17020 ft | 245 kts | 37° |
| 2026-04-28 07:38 | 55.18927 | 108.62016 | 16966 ft | 248 kts | 38° |
| 2026-04-28 07:38 | 55.20157 | 108.64043 | 17065 ft | 243 kts | 38° |
| 2026-04-28 07:38 | 55.21390 | 108.66078 | 17095 ft | 242 kts | 38° |
| 2026-04-28 07:38 | 55.22616 | 108.68099 | 17065 ft | 244 kts | 38° |
| 2026-04-28 07:39 | 55.23837 | 108.70114 | 17046 ft | 245 kts | 38° |
| 2026-04-28 07:39 | 55.25074 | 108.72160 | 17101 ft | 242 kts | 38° |
| 2026-04-28 07:39 | 55.26279 | 108.74157 | 17147 ft | 241 kts | 38° |
| 2026-04-28 07:39 | 55.27517 | 108.76202 | 17097 ft | 244 kts | 38° |
| 2026-04-28 07:40 | 55.28741 | 108.78223 | 17088 ft | 246 kts | 38° |
| 2026-04-28 07:40 | 55.29988 | 108.80288 | 17078 ft | 247 kts | 38° |
| 2026-04-28 07:40 | 55.31238 | 108.82359 | 17065 ft | 248 kts | 38° |
| 2026-04-28 07:40 | 55.32499 | 108.84450 | 17030 ft | 249 kts | 38° |
| 2026-04-28 07:41 | 55.33757 | 108.86540 | 17052 ft | 249 kts | 39° |
| 2026-04-28 07:41 | 55.35007 | 108.88622 | 17052 ft | 249 kts | 39° |
| 2026-04-28 07:41 | 55.36254 | 108.90702 | 17038 ft | 250 kts | 39° |
| 2026-04-28 07:41 | 55.37501 | 108.92786 | 17053 ft | 249 kts | 38° |
| 2026-04-28 07:42 | 55.38774 | 108.94910 | 17035 ft | 250 kts | 39° |
| 2026-04-28 07:42 | 55.40023 | 108.96999 | 17043 ft | 249 kts | 39° |
| 2026-04-28 07:42 | 55.41276 | 108.99099 | 17022 ft | 250 kts | 38° |
| 2026-04-28 07:42 | 55.42532 | 109.01200 | 17034 ft | 248 kts | 38° |
| 2026-04-28 07:43 | 55.43767 | 109.03274 | 17060 ft | 247 kts | 38° |
| 2026-04-28 07:43 | 55.45021 | 109.05377 | 17052 ft | 248 kts | 38° |
| 2026-04-28 07:43 | 55.46260 | 109.07455 | 17060 ft | 248 kts | 38° |
| 2026-04-28 07:43 | 55.47496 | 109.09533 | 17028 ft | 248 kts | 38° |
| 2026-04-28 07:44 | 55.48745 | 109.11637 | 17043 ft | 247 kts | 38° |
| 2026-04-28 07:44 | 55.49976 | 109.13711 | 17058 ft | 246 kts | 38° |
| 2026-04-28 07:44 | 55.51219 | 109.15808 | 17073 ft | 246 kts | 38° |
| 2026-04-28 07:44 | 55.52442 | 109.17871 | 17056 ft | 246 kts | 38° |
| 2026-04-28 07:45 | 55.53682 | 109.19964 | 17064 ft | 246 kts | 38° |
| 2026-04-28 07:45 | 55.54913 | 109.22044 | 17073 ft | 246 kts | 38° |
| 2026-04-28 07:45 | 55.56143 | 109.24126 | 17057 ft | 246 kts | 38° |
| 2026-04-28 07:45 | 55.57381 | 109.26227 | 17087 ft | 246 kts | 38° |
| 2026-04-28 07:46 | 55.58610 | 109.28308 | 17069 ft | 247 kts | 38° |
| 2026-04-28 07:46 | 55.59851 | 109.30411 | 17055 ft | 247 kts | 38° |
| 2026-04-28 07:46 | 55.61094 | 109.32519 | 17064 ft | 247 kts | 38° |
| 2026-04-28 07:46 | 55.62315 | 109.34593 | 17059 ft | 248 kts | 38° |
| 2026-04-28 07:47 | 55.63566 | 109.36722 | 17074 ft | 247 kts | 38° |
| 2026-04-28 07:47 | 55.64797 | 109.38819 | 17069 ft | 247 kts | 38° |
| 2026-04-28 07:47 | 55.66029 | 109.40922 | 17062 ft | 248 kts | 38° |
| 2026-04-28 07:47 | 55.67268 | 109.43037 | 17085 ft | 247 kts | 38° |
| 2026-04-28 07:48 | 55.68507 | 109.45158 | 17061 ft | 248 kts | 38° |
| 2026-04-28 07:48 | 55.69744 | 109.47276 | 17066 ft | 248 kts | 38° |
| 2026-04-28 07:48 | 55.70974 | 109.49382 | 17080 ft | 247 kts | 38° |
| 2026-04-28 07:48 | 55.72202 | 109.51482 | 17061 ft | 248 kts | 38° |
| 2026-04-28 07:49 | 55.73437 | 109.53597 | 17074 ft | 248 kts | 38° |
| 2026-04-28 07:49 | 55.74685 | 109.55738 | 17072 ft | 248 kts | 38° |
| 2026-04-28 07:49 | 55.75898 | 109.57911 | 17074 ft | 249 kts | 41° |
| 2026-04-28 07:49 | 55.77055 | 109.60159 | 17050 ft | 251 kts | 42° |
| 2026-04-28 07:50 | 55.78223 | 109.62469 | 17046 ft | 251 kts | 42° |
| 2026-04-28 07:50 | 55.79382 | 109.64763 | 17062 ft | 251 kts | 42° |
| 2026-04-28 07:50 | 55.80559 | 109.67094 | 17036 ft | 252 kts | 43° |
| 2026-04-28 07:50 | 55.81712 | 109.69379 | 17039 ft | 252 kts | 43° |
| 2026-04-28 07:51 | 55.82879 | 109.71691 | 17041 ft | 251 kts | 43° |
| 2026-04-28 07:51 | 55.84427 | 109.74759 | 17042 ft | 251 kts | 43° |
| 2026-04-28 07:51 | 55.85212 | 109.76315 | 17022 ft | 252 kts | 43° |
| 2026-04-28 07:51 | 55.86376 | 109.78630 | 17035 ft | 251 kts | 43° |
| 2026-04-28 07:52 | 55.87531 | 109.80932 | 17028 ft | 251 kts | 43° |
| 2026-04-28 07:52 | 55.88694 | 109.83250 | 17011 ft | 252 kts | 43° |
| 2026-04-28 07:52 | 55.89862 | 109.85580 | 17027 ft | 251 kts | 43° |
| 2026-04-28 07:52 | 55.91008 | 109.87869 | 17006 ft | 251 kts | 43° |
| 2026-04-28 07:53 | 55.92172 | 109.90195 | 16993 ft | 251 kts | 43° |
| 2026-04-28 07:53 | 55.93327 | 109.92506 | 17029 ft | 249 kts | 43° |
| 2026-04-28 07:53 | 55.94482 | 109.94820 | 17030 ft | 249 kts | 43° |
| 2026-04-28 07:53 | 55.95629 | 109.97121 | 17009 ft | 250 kts | 43° |
| 2026-04-28 07:54 | 55.96770 | 109.99408 | 17010 ft | 249 kts | 43° |
| 2026-04-28 07:54 | 55.97915 | 110.01707 | 17040 ft | 248 kts | 43° |
| 2026-04-28 07:54 | 55.99069 | 110.04029 | 17027 ft | 248 kts | 43° |
| 2026-04-28 07:54 | 56.00206 | 110.06313 | 17015 ft | 249 kts | 43° |
| 2026-04-28 07:55 | 56.01351 | 110.08614 | 17012 ft | 250 kts | 43° |
| 2026-04-28 07:55 | 56.02517 | 110.10963 | 17006 ft | 250 kts | 43° |
| 2026-04-28 07:55 | 56.03663 | 110.13280 | 17029 ft | 249 kts | 43° |
| 2026-04-28 07:55 | 56.04795 | 110.15567 | 17001 ft | 250 kts | 43° |
| 2026-04-28 07:56 | 56.05951 | 110.17906 | 16999 ft | 250 kts | 42° |
| 2026-04-28 07:56 | 56.07085 | 110.20205 | 17004 ft | 249 kts | 43° |
| 2026-04-28 07:56 | 56.08230 | 110.22527 | 16985 ft | 249 kts | 43° |
| 2026-04-28 07:56 | 56.09373 | 110.24847 | 16997 ft | 248 kts | 43° |
| 2026-04-28 07:57 | 56.10516 | 110.27171 | 16977 ft | 249 kts | 43° |
| 2026-04-28 07:57 | 56.11667 | 110.29509 | 16989 ft | 249 kts | 43° |
| 2026-04-28 07:57 | 56.12800 | 110.31817 | 16996 ft | 249 kts | 43° |
| 2026-04-28 07:57 | 56.13942 | 110.34141 | 16986 ft | 249 kts | 43° |
| 2026-04-28 07:58 | 56.15075 | 110.36452 | 17003 ft | 248 kts | 43° |
| 2026-04-28 07:58 | 56.16215 | 110.38775 | 16990 ft | 249 kts | 43° |
| 2026-04-28 07:58 | 56.17364 | 110.41120 | 17004 ft | 248 kts | 43° |
| 2026-04-28 07:58 | 56.18493 | 110.43427 | 16990 ft | 249 kts | 43° |
| 2026-04-28 07:59 | 56.19631 | 110.45753 | 16977 ft | 249 kts | 43° |
| 2026-04-28 07:59 | 56.20766 | 110.48076 | 16993 ft | 249 kts | 43° |
| 2026-04-28 07:59 | 56.21910 | 110.50417 | 16986 ft | 249 kts | 43° |
| 2026-04-28 07:59 | 56.23044 | 110.52741 | 16991 ft | 248 kts | 43° |
| 2026-04-28 08:00 | 56.24187 | 110.55084 | 16969 ft | 249 kts | 43° |
| 2026-04-28 08:00 | 56.25329 | 110.57428 | 16992 ft | 248 kts | 43° |
| 2026-04-28 08:00 | 56.26456 | 110.59745 | 16989 ft | 248 kts | 43° |
| 2026-04-28 08:00 | 56.27597 | 110.62088 | 16963 ft | 250 kts | 43° |
| 2026-04-28 08:01 | 56.28733 | 110.64430 | 16987 ft | 248 kts | 43° |
| 2026-04-28 08:01 | 56.29859 | 110.66756 | 16983 ft | 249 kts | 44° |
| 2026-04-28 08:01 | 56.31004 | 110.69123 | 16982 ft | 249 kts | 43° |
| 2026-04-28 08:01 | 56.32131 | 110.71455 | 16980 ft | 248 kts | 43° |
| 2026-04-28 08:02 | 56.33261 | 110.73796 | 16975 ft | 249 kts | 43° |
| 2026-04-28 08:02 | 56.34768 | 110.76917 | 16970 ft | 249 kts | 43° |
| 2026-04-28 08:02 | 56.35519 | 110.78474 | 16984 ft | 248 kts | 43° |
| 2026-04-28 08:02 | 56.36661 | 110.80844 | 16977 ft | 248 kts | 43° |
| 2026-04-28 08:03 | 56.37780 | 110.83169 | 16963 ft | 249 kts | 43° |
| 2026-04-28 08:03 | 56.38910 | 110.85518 | 16982 ft | 248 kts | 44° |
| 2026-04-28 08:03 | 56.40045 | 110.87880 | 16972 ft | 249 kts | 43° |
| 2026-04-28 08:03 | 56.41175 | 110.90231 | 16950 ft | 249 kts | 44° |
| 2026-04-28 08:04 | 56.42308 | 110.92593 | 16964 ft | 249 kts | 43° |
| 2026-04-28 08:04 | 56.43427 | 110.94926 | 16951 ft | 249 kts | 44° |
| 2026-04-28 08:04 | 56.44572 | 110.97314 | 16941 ft | 249 kts | 43° |
| 2026-04-28 08:04 | 56.45695 | 110.99666 | 16970 ft | 248 kts | 43° |
| 2026-04-28 08:05 | 56.46809 | 111.02002 | 16947 ft | 249 kts | 43° |
| 2026-04-28 08:05 | 56.47939 | 111.04372 | 16942 ft | 249 kts | 43° |
| 2026-04-28 08:05 | 56.49074 | 111.06754 | 16946 ft | 249 kts | 43° |
| 2026-04-28 08:05 | 56.50196 | 111.09109 | 16935 ft | 249 kts | 43° |
| 2026-04-28 08:06 | 56.51329 | 111.11488 | 16959 ft | 248 kts | 43° |
| 2026-04-28 08:06 | 56.52448 | 111.13841 | 16944 ft | 249 kts | 43° |
| 2026-04-28 08:06 | 56.53566 | 111.16194 | 16946 ft | 248 kts | 43° |
| 2026-04-28 08:06 | 56.54699 | 111.18584 | 16942 ft | 248 kts | 43° |
| 2026-04-28 08:07 | 56.55815 | 111.20940 | 16940 ft | 248 kts | 43° |
| 2026-04-28 08:07 | 56.56935 | 111.23306 | 16950 ft | 248 kts | 43° |
| 2026-04-28 08:07 | 56.58061 | 111.25687 | 16947 ft | 248 kts | 43° |
| 2026-04-28 08:07 | 56.59181 | 111.28058 | 16966 ft | 248 kts | 43° |
| 2026-04-28 08:08 | 56.60297 | 111.30420 | 16943 ft | 249 kts | 43° |
| 2026-04-28 08:08 | 56.61414 | 111.32787 | 16925 ft | 250 kts | 44° |
| 2026-04-28 08:08 | 56.62540 | 111.35181 | 16944 ft | 249 kts | 43° |
| 2026-04-28 08:08 | 56.63665 | 111.37573 | 16931 ft | 250 kts | 43° |
| 2026-04-28 08:09 | 56.64797 | 111.39984 | 16946 ft | 249 kts | 43° |
| 2026-04-28 08:09 | 56.65915 | 111.42367 | 16933 ft | 249 kts | 43° |
| 2026-04-28 08:09 | 56.67028 | 111.44739 | 16939 ft | 249 kts | 43° |
| 2026-04-28 08:09 | 56.68155 | 111.47146 | 16955 ft | 249 kts | 43° |
| 2026-04-28 08:10 | 56.69275 | 111.49537 | 16933 ft | 250 kts | 43° |
| 2026-04-28 08:10 | 56.70390 | 111.51917 | 16930 ft | 250 kts | 43° |
| 2026-04-28 08:10 | 56.71516 | 111.54324 | 16940 ft | 250 kts | 43° |
| 2026-04-28 08:10 | 56.72635 | 111.56722 | 16926 ft | 250 kts | 43° |
| 2026-04-28 08:11 | 56.73762 | 111.59140 | 16950 ft | 249 kts | 43° |
| 2026-04-28 08:11 | 56.74885 | 111.61552 | 16946 ft | 249 kts | 43° |
| 2026-04-28 08:11 | 56.75994 | 111.63938 | 16963 ft | 248 kts | 43° |
| 2026-04-28 08:11 | 56.77110 | 111.66338 | 16951 ft | 249 kts | 44° |
| 2026-04-28 08:12 | 56.78218 | 111.68726 | 16944 ft | 249 kts | 44° |
| 2026-04-28 08:12 | 56.79330 | 111.71118 | 16965 ft | 248 kts | 44° |
| 2026-04-28 08:12 | 56.80451 | 111.73535 | 16943 ft | 249 kts | 44° |
| 2026-04-28 08:12 | 56.81570 | 111.75949 | 16941 ft | 248 kts | 44° |
| 2026-04-28 08:13 | 56.82678 | 111.78341 | 16954 ft | 248 kts | 44° |
| 2026-04-28 08:13 | 56.83789 | 111.80743 | 16936 ft | 249 kts | 44° |
| 2026-04-28 08:13 | 56.84893 | 111.83132 | 16933 ft | 249 kts | 44° |
| 2026-04-28 08:13 | 56.86012 | 111.85562 | 16959 ft | 248 kts | 44° |
| 2026-04-28 08:14 | 56.87127 | 111.87984 | 16934 ft | 249 kts | 44° |
| 2026-04-28 08:14 | 56.88225 | 111.90367 | 16943 ft | 249 kts | 44° |
| 2026-04-28 08:14 | 56.89345 | 111.92803 | 16951 ft | 248 kts | 44° |
| 2026-04-28 08:14 | 56.90452 | 111.95213 | 16959 ft | 248 kts | 44° |
| 2026-04-28 08:15 | 56.91546 | 111.97596 | 16948 ft | 248 kts | 44° |
| 2026-04-28 08:15 | 56.92656 | 112.00015 | 16949 ft | 248 kts | 44° |
| 2026-04-28 08:15 | 56.93763 | 112.02435 | 16971 ft | 247 kts | 44° |
| 2026-04-28 08:15 | 56.94866 | 112.04850 | 16955 ft | 248 kts | 44° |
| 2026-04-28 08:16 | 56.95958 | 112.07240 | 16964 ft | 247 kts | 44° |
| 2026-04-28 08:16 | 56.97069 | 112.09676 | 16960 ft | 247 kts | 44° |
| 2026-04-28 08:16 | 56.98172 | 112.12091 | 16947 ft | 248 kts | 44° |
| 2026-04-28 08:16 | 56.99276 | 112.14510 | 16950 ft | 248 kts | 44° |
| 2026-04-28 08:17 | 57.00367 | 112.16907 | 16936 ft | 249 kts | 44° |
| 2026-04-28 08:17 | 57.01473 | 112.19340 | 16957 ft | 248 kts | 44° |
| 2026-04-28 08:17 | 57.02568 | 112.21752 | 16945 ft | 248 kts | 44° |
| 2026-04-28 08:17 | 57.03685 | 112.24210 | 16936 ft | 249 kts | 44° |
| 2026-04-28 08:18 | 57.04771 | 112.26605 | 16944 ft | 248 kts | 44° |
| 2026-04-28 08:18 | 57.05884 | 112.29065 | 16932 ft | 248 kts | 44° |
| 2026-04-28 08:18 | 57.06972 | 112.31474 | 16950 ft | 248 kts | 43° |
| 2026-04-28 08:18 | 57.08074 | 112.33915 | 16930 ft | 248 kts | 43° |
| 2026-04-28 08:19 | 57.09185 | 112.36375 | 16937 ft | 248 kts | 43° |
| 2026-04-28 08:19 | 57.10280 | 112.38802 | 16947 ft | 247 kts | 43° |
| 2026-04-28 08:19 | 57.11375 | 112.41231 | 16931 ft | 248 kts | 43° |
| 2026-04-28 08:19 | 57.12475 | 112.43671 | 16937 ft | 248 kts | 43° |
| 2026-04-28 08:20 | 57.13559 | 112.46110 | 16935 ft | 249 kts | 44° |
| 2026-04-28 08:20 | 57.14639 | 112.48599 | 16947 ft | 249 kts | 44° |
| 2026-04-28 08:20 | 57.15707 | 112.51069 | 16934 ft | 249 kts | 44° |
| 2026-04-28 08:20 | 57.16795 | 112.53585 | 16947 ft | 248 kts | 44° |
| 2026-04-28 08:21 | 57.17866 | 112.56065 | 16959 ft | 248 kts | 44° |
| 2026-04-28 08:21 | 57.18932 | 112.58536 | 16934 ft | 250 kts | 44° |
| 2026-04-28 08:21 | 57.20016 | 112.61050 | 16945 ft | 249 kts | 44° |
| 2026-04-28 08:21 | 57.21079 | 112.63519 | 16933 ft | 250 kts | 44° |
| 2026-04-28 08:22 | 57.22166 | 112.66043 | 16932 ft | 250 kts | 45° |
| 2026-04-28 08:22 | 57.23249 | 112.68562 | 16938 ft | 249 kts | 45° |
| 2026-04-28 08:22 | 57.24313 | 112.71040 | 16941 ft | 249 kts | 45° |
| 2026-04-28 08:22 | 57.25378 | 112.73525 | 16935 ft | 248 kts | 45° |
| 2026-04-28 08:23 | 57.26443 | 112.76065 | 16955 ft | 248 kts | 46° |
| 2026-04-28 08:23 | 57.27467 | 112.78612 | 16944 ft | 249 kts | 47° |
| 2026-04-28 08:23 | 57.28499 | 112.81148 | 16942 ft | 249 kts | 46° |
| 2026-04-28 08:23 | 57.29546 | 112.83690 | 16952 ft | 249 kts | 46° |
| 2026-04-28 08:24 | 57.30602 | 112.86253 | 16945 ft | 249 kts | 46° |
| 2026-04-28 08:24 | 57.31641 | 112.88778 | 16956 ft | 249 kts | 46° |
| 2026-04-28 08:24 | 57.32682 | 112.91314 | 16943 ft | 250 kts | 46° |
| 2026-04-28 08:24 | 57.33743 | 112.93870 | 16963 ft | 249 kts | 45° |
| 2026-04-28 08:25 | 57.34798 | 112.96361 | 16947 ft | 249 kts | 45° |
| 2026-04-28 08:25 | 57.35877 | 112.98904 | 16933 ft | 250 kts | 45° |
| 2026-04-28 08:25 | 57.36923 | 113.01441 | 16947 ft | 249 kts | 46° |
| 2026-04-28 08:26 | 57.39042 | 113.06502 | 16955 ft | 248 kts | 44° |
| 2026-04-28 08:26 | 57.40068 | 113.09049 | 16936 ft | 250 kts | 47° |
| 2026-04-28 08:26 | 57.41115 | 113.11657 | 16872 ft | 252 kts | 46° |
| 2026-04-28 08:26 | 57.42152 | 113.14234 | 16960 ft | 248 kts | 46° |
| 2026-04-28 08:27 | 57.43166 | 113.16760 | 16969 ft | 248 kts | 46° |
| 2026-04-28 08:27 | 57.44218 | 113.19361 | 16870 ft | 252 kts | 46° |
| 2026-04-28 08:27 | 57.45274 | 113.21876 | 16932 ft | 248 kts | 44° |
| 2026-04-28 08:27 | 57.46346 | 113.24369 | 16958 ft | 247 kts | 44° |
| 2026-04-28 08:28 | 57.47426 | 113.26868 | 16871 ft | 251 kts | 44° |
| 2026-04-28 08:28 | 57.48510 | 113.29386 | 16912 ft | 248 kts | 44° |
| 2026-04-28 08:28 | 57.49572 | 113.31864 | 16959 ft | 245 kts | 44° |
| 2026-04-28 08:28 | 57.50621 | 113.34339 | 16889 ft | 241 kts | 45° |
| 2026-04-28 08:29 | 57.51638 | 113.36820 | 16473 ft | 242 kts | 45° |
| 2026-04-28 08:29 | 57.52646 | 113.39272 | 16120 ft | 240 kts | 44° |
| 2026-04-28 08:29 | 57.53651 | 113.41715 | 15748 ft | 240 kts | 44° |
| 2026-04-28 08:29 | 57.54666 | 113.44203 | 15345 ft | 240 kts | 45° |
| 2026-04-28 08:30 | 57.55665 | 113.46648 | 14978 ft | 239 kts | 44° |
| 2026-04-28 08:30 | 57.56686 | 113.49072 | 14582 ft | 239 kts | 43° |
| 2026-04-28 08:30 | 57.57709 | 113.51505 | 14203 ft | 239 kts | 44° |
| 2026-04-28 08:30 | 57.58723 | 113.53974 | 13840 ft | 239 kts | 44° |
| 2026-04-28 08:31 | 57.59665 | 113.56474 | 13480 ft | 240 kts | 48° |
| 2026-04-28 08:31 | 57.60573 | 113.59069 | 13144 ft | 237 kts | 48° |
| 2026-04-28 08:31 | 57.61475 | 113.61589 | 12781 ft | 237 kts | 48° |
| 2026-04-28 08:31 | 57.62374 | 113.64177 | 12427 ft | 236 kts | 49° |
| 2026-04-28 08:32 | 57.63240 | 113.66734 | 12072 ft | 235 kts | 51° |
| 2026-04-28 08:32 | 57.64099 | 113.69292 | 11696 ft | 235 kts | 51° |
| 2026-04-28 08:32 | 57.64984 | 113.71886 | 11310 ft | 235 kts | 51° |
| 2026-04-28 08:32 | 57.65841 | 113.74425 | 10999 ft | 231 kts | 51° |
| 2026-04-28 08:33 | 57.66687 | 113.76971 | 10661 ft | 230 kts | 51° |
| 2026-04-28 08:33 | 57.67552 | 113.79484 | 10258 ft | 231 kts | 51° |
| 2026-04-28 08:33 | 57.68415 | 113.81958 | 9922 ft | 230 kts | 50° |
| 2026-04-28 08:33 | 57.69293 | 113.84475 | 9392 ft | 237 kts | 50° |
| 2026-04-28 08:34 | 57.70209 | 113.87073 | 8921 ft | 240 kts | 51° |
| 2026-04-28 08:34 | 57.71112 | 113.89643 | 8478 ft | 240 kts | 50° |
| 2026-04-28 08:34 | 57.72056 | 113.92217 | 8023 ft | 239 kts | 49° |
| 2026-04-28 08:34 | 57.73006 | 113.94743 | 7608 ft | 238 kts | 49° |
| 2026-04-28 08:35 | 57.73975 | 113.97237 | 7050 ft | 241 kts | 48° |
| 2026-04-28 08:35 | 57.74951 | 113.99736 | 6629 ft | 237 kts | 49° |
| 2026-04-28 08:35 | 57.75897 | 114.02215 | 6246 ft | 234 kts | 50° |
| 2026-04-28 08:35 | 57.76826 | 114.04697 | 5792 ft | 233 kts | 51° |
| 2026-04-28 08:36 | 57.77733 | 114.07104 | 5529 ft | 222 kts | 50° |
| 2026-04-28 08:36 | 57.78612 | 114.09416 | 5197 ft | 219 kts | 51° |
| 2026-04-28 08:36 | 57.79514 | 114.11674 | 4863 ft | 213 kts | 46° |
| 2026-04-28 08:36 | 57.80464 | 114.13727 | 4585 ft | 206 kts | 43° |
| 2026-04-28 08:37 | 57.81430 | 114.15685 | 4298 ft | 201 kts | 43° |
| 2026-04-28 08:37 | 57.82402 | 114.17486 | 4027 ft | 195 kts | 39° |
| 2026-04-28 08:37 | 57.83383 | 114.19153 | 3894 ft | 184 kts | 39° |
| 2026-04-28 08:37 | 57.84244 | 114.20815 | 3853 ft | 171 kts | 46° |
| 2026-04-28 08:38 | 57.84889 | 114.22608 | 3660 ft | 164 kts | 61° |
| 2026-04-28 08:38 | 57.85308 | 114.24628 | 3278 ft | 164 kts | 68° |
| 2026-04-28 08:38 | 57.85664 | 114.26553 | 3205 ft | 145 kts | 68° |
| 2026-04-28 08:38 | 57.86005 | 114.28310 | 3033 ft | 147 kts | 65° |
| 2026-04-28 08:39 | 57.86414 | 114.30084 | 2910 ft | 145 kts | 63° |
| 2026-04-28 08:39 | 57.86820 | 114.31785 | 2812 ft | 143 kts | 64° |
| 2026-04-28 08:39 | 57.87223 | 114.33514 | 2733 ft | 144 kts | 64° |
| 2026-04-28 08:39 | 57.87583 | 114.35227 | 2732 ft | 140 kts | 69° |
| 2026-04-28 08:40 | 57.87872 | 114.36970 | 2691 ft | 138 kts | 71° |
| 2026-04-28 08:40 | 57.88114 | 114.38664 | 2675 ft | 133 kts | 74° |
| 2026-04-28 08:40 | 57.88324 | 114.40311 | 2648 ft | 128 kts | 68° |
| 2026-04-28 08:40 | 57.88887 | 114.41596 | 2406 ft | 131 kts | 25° |
| 2026-04-28 08:41 | 57.89760 | 114.41648 | 2173 ft | 130 kts | 337° |
| 2026-04-28 08:41 | 57.90369 | 114.40431 | 1881 ft | 132 kts | 292° |
| 2026-04-28 08:41 | 57.90540 | 114.38777 | 1724 ft | 126 kts | 279° |
| 2026-04-28 08:41 | 57.90631 | 114.37118 | 1638 ft | 126 kts | 275° |
| 2026-04-28 08:42 | 57.90643 | 114.35513 | 1645 ft | 123 kts | 267° |
| 2026-04-28 08:42 | 57.90472 | 114.33894 | 1605 ft | 127 kts | 250° |
| 2026-04-28 08:42 | 57.89965 | 114.32525 | 1543 ft | 131 kts | 225° |
| 2026-04-28 08:42 | 57.89383 | 114.31229 | 1493 ft | 128 kts | 232° |
| 2026-04-28 08:43 | 57.88814 | 114.29942 | 1430 ft | 130 kts | 230° |
| 2026-04-28 08:43 | 57.88274 | 114.28591 | 1341 ft | 131 kts | 234° |
| 2026-04-28 08:43 | 57.87743 | 114.27198 | 1192 ft | 133 kts | 233° |
| 2026-04-28 08:43 | 57.87186 | 114.25775 | 1021 ft | 134 kts | 234° |
| 2026-04-28 08:44 | 57.86670 | 114.24423 | 912 ft | 117 kts | 232° |
| 2026-04-28 08:44 | 57.86267 | 114.23408 | 909 ft | 73 kts | 232° |
| 2026-04-28 08:44 | 57.86091 | 114.22957 | 910 ft | 18 kts | 241° |
| 2026-04-28 08:44 | 57.86049 | 114.22884 | 912 ft | 6 kts | 75° |
| 2026-04-28 08:45 | 57.86074 | 114.22929 | 911 ft | 3 kts | 49° |
| 2026-04-28 08:45 | 57.86129 | 114.23061 | 910 ft | 14 kts | 50° |
| 2026-04-28 08:45 | 57.86196 | 114.23232 | 909 ft | 24 kts | 53° |
| 2026-04-28 08:45 | 57.86290 | 114.23477 | 909 ft | 10 kts | 54° |
| 2026-04-28 08:46 | 57.86299 | 114.23518 | 909 ft | 1 kts | 121° |
| 2026-04-28 08:46 | 57.86268 | 114.23548 | 908 ft | 7 kts | 154° |
| 2026-04-28 08:46 | 57.86215 | 114.23589 | 904 ft | 8 kts | 165° |
| 2026-04-28 08:46 | 57.86163 | 114.23527 | 902 ft | 10 kts | 232° |
| 2026-04-28 08:47 | 57.86129 | 114.23424 | 902 ft | 7 kts | 278° |
| 2026-04-28 08:47 | 57.86147 | 114.23394 | 903 ft | 0 kts | 326° |